Time;durP1;ratioP1;P1;durP2;ratioP2;P2;SDS_P1;SDS_P2;PMS_P1;PMS_P2;Temp;Humidity;BMP_temperature;BMP_pressure;BME280_temperature;BME280_humidity;BME280_pressure;Samples;Min_cycle;Max_cycle;Signal;HPM_P1;HPM_P2
2021/05/21 00:00:04;;;;;;;6.35;3.10;;;9.10;99.90;;;;;;4930710;28;20126;-65
2021/05/21 00:02:35;;;;;;;3.50;2.65;;;9.10;99.90;;;;;;4929608;28;20104;-65
2021/05/21 00:05:03;;;;;;;6.97;2.72;;;9.10;99.90;;;;;;4930325;28;20066;-66
2021/05/21 00:07:30;;;;;;;6.68;2.78;;;9.10;99.90;;;;;;4925353;28;20051;-67
2021/05/21 00:09:57;;;;;;;3.22;2.40;;;9.10;99.90;;;;;;4930747;28;20110;-65
2021/05/21 00:12:24;;;;;;;5.75;2.92;;;9.10;99.90;;;;;;4928872;28;20171;-65
2021/05/21 00:14:52;;;;;;;3.83;2.75;;;9.00;99.90;;;;;;4930179;28;20703;-67
2021/05/21 00:17:18;;;;;;;4.07;2.50;;;9.00;99.90;;;;;;4929517;28;20051;-67
2021/05/21 00:19:45;;;;;;;8.88;3.20;;;9.00;99.90;;;;;;4932913;28;20499;-66
2021/05/21 00:22:12;;;;;;;7.32;3.00;;;9.00;99.90;;;;;;4928388;28;20067;-66
2021/05/21 00:24:39;;;;;;;4.57;2.78;;;9.00;99.90;;;;;;4930350;28;20111;-65
2021/05/21 00:27:06;;;;;;;4.88;2.80;;;9.00;99.90;;;;;;4930211;28;20576;-65
2021/05/21 00:29:33;;;;;;;3.40;2.67;;;9.00;99.90;;;;;;4934360;28;21424;-65
2021/05/21 00:32:01;;;;;;;5.90;3.33;;;9.00;99.90;;;;;;4935756;28;20047;-66
2021/05/21 00:34:28;;;;;;;8.75;3.33;;;9.00;99.90;;;;;;4935596;28;20059;-66
2021/05/21 00:36:55;;;;;;;4.68;2.50;;;9.00;99.90;;;;;;4935681;28;20500;-65
2021/05/21 00:39:22;;;;;;;4.88;2.55;;;9.00;99.90;;;;;;4935258;28;20185;-65
2021/05/21 00:41:49;;;;;;;7.63;3.17;;;9.00;99.90;;;;;;4935346;28;20051;-65
2021/05/21 00:44:16;;;;;;;6.18;3.38;;;9.00;99.90;;;;;;4950303;28;20051;-67
2021/05/21 00:46:43;;;;;;;7.45;3.53;;;9.00;99.90;;;;;;4934840;28;20477;-65
2021/05/21 00:49:10;;;;;;;5.80;3.35;;;9.00;99.90;;;;;;4935593;28;20066;-66
2021/05/21 00:51:37;;;;;;;5.22;3.50;;;9.00;99.90;;;;;;4934085;28;20158;-65
2021/05/21 00:54:04;;;;;;;10.65;3.78;;;9.00;99.90;;;;;;4935089;28;20102;-65
2021/05/21 00:56:32;;;;;;;5.18;2.65;;;9.00;99.90;;;;;;4935995;28;20096;-65
2021/05/21 00:58:59;;;;;;;9.65;3.30;;;9.00;99.90;;;;;;4936346;28;20583;-66
2021/05/21 01:01:31;;;;;;;12.82;4.65;;;9.00;99.90;;;;;;4933012;28;20067;-67
2021/05/21 01:03:58;;;;;;;3.88;2.58;;;9.00;99.90;;;;;;4935598;28;20060;-66
2021/05/21 01:06:26;;;;;;;7.25;3.20;;;9.00;99.90;;;;;;4935029;28;20051;-66
2021/05/21 01:08:55;;;;;;;5.05;2.75;;;9.00;99.90;;;;;;4934058;28;20055;-67
2021/05/21 01:11:23;;;;;;;6.32;3.30;;;9.00;99.90;;;;;;4934282;28;20678;-64
2021/05/21 01:13:50;;;;;;;7.88;2.72;;;9.00;99.90;;;;;;4936495;28;20115;-66
2021/05/21 01:16:17;;;;;;;5.45;3.35;;;9.00;99.90;;;;;;4935769;28;20058;-66
2021/05/21 01:18:44;;;;;;;7.22;3.08;;;9.00;99.90;;;;;;4936029;28;20047;-65
2021/05/21 01:21:11;;;;;;;6.03;3.97;;;9.00;99.90;;;;;;4934004;28;20060;-65
2021/05/21 01:23:38;;;;;;;10.40;3.42;;;8.90;99.90;;;;;;4936556;28;20087;-65
2021/05/21 01:26:05;;;;;;;10.88;3.10;;;9.00;99.90;;;;;;4939124;28;20512;-65
2021/05/21 01:28:32;;;;;;;4.15;3.17;;;9.00;99.90;;;;;;4935709;28;21369;-65
2021/05/21 01:30:59;;;;;;;9.43;3.25;;;9.00;99.90;;;;;;4937612;28;20126;-65
2021/05/21 01:33:26;;;;;;;8.27;3.35;;;8.90;99.90;;;;;;4933757;28;21014;-65
2021/05/21 01:35:54;;;;;;;5.18;3.13;;;8.90;99.90;;;;;;4937054;28;20103;-65
2021/05/21 01:38:22;;;;;;;4.13;2.78;;;8.90;99.90;;;;;;4934644;28;20058;-67
2021/05/21 01:40:50;;;;;;;5.30;3.72;;;8.90;99.90;;;;;;4933740;28;20150;-65
2021/05/21 01:43:17;;;;;;;6.43;3.08;;;8.90;99.90;;;;;;4931093;28;20039;-66
2021/05/21 01:45:44;;;;;;;7.80;2.85;;;9.00;99.90;;;;;;4932597;28;20112;-66
2021/05/21 01:48:12;;;;;;;6.05;2.88;;;9.00;99.90;;;;;;4932287;28;20809;-64
2021/05/21 01:50:39;;;;;;;4.13;2.75;;;8.90;99.90;;;;;;4933896;28;21618;-64
2021/05/21 01:53:06;;;;;;;9.07;2.88;;;8.90;99.90;;;;;;4932454;28;20718;-64
2021/05/21 01:55:34;;;;;;;8.13;3.08;;;8.90;99.90;;;;;;4932248;28;20059;-65
2021/05/21 01:58:01;;;;;;;4.30;2.60;;;8.90;99.90;;;;;;4933369;28;20051;-66
2021/05/21 02:00:28;;;;;;;6.35;4.53;;;8.90;99.90;;;;;;4932208;28;20043;-65
2021/05/21 02:02:55;;;;;;;5.45;2.78;;;8.90;99.90;;;;;;4930343;28;20051;-66
2021/05/21 02:05:22;;;;;;;5.72;2.85;;;8.90;99.90;;;;;;4931907;28;20138;-65
2021/05/21 02:07:49;;;;;;;8.27;3.15;;;8.90;99.90;;;;;;4931480;28;20078;-65
2021/05/21 02:10:16;;;;;;;10.45;3.65;;;8.90;99.90;;;;;;4917951;29;20086;-66
2021/05/21 02:12:45;;;;;;;11.07;3.60;;;8.80;99.90;;;;;;4918065;29;20070;-66
2021/05/21 02:15:13;;;;;;;6.60;2.50;;;8.80;99.90;;;;;;4917081;29;20140;-66
2021/05/21 02:17:40;;;;;;;15.13;3.50;;;8.80;99.90;;;;;;4915135;28;20107;-65
2021/05/21 02:20:08;;;;;;;8.32;3.60;;;8.80;99.90;;;;;;4917229;29;20569;-67
2021/05/21 02:22:39;;;;;;;7.38;3.58;;;8.80;99.90;;;;;;4917746;29;20055;-65
2021/05/21 02:25:06;;;;;;;10.85;3.20;;;8.80;99.90;;;;;;4917594;28;20055;-65
2021/05/21 02:27:33;;;;;;;12.48;3.40;;;8.80;99.90;;;;;;4916484;29;20139;-64
2021/05/21 02:30:00;;;;;;;5.93;2.58;;;8.80;99.90;;;;;;4917206;28;20439;-67
2021/05/21 02:32:27;;;;;;;5.43;2.38;;;8.80;99.90;;;;;;4917726;29;20723;-65
2021/05/21 02:34:55;;;;;;;4.63;2.75;;;8.80;99.90;;;;;;4918219;29;20051;-66
2021/05/21 02:37:22;;;;;;;8.45;3.83;;;8.70;99.90;;;;;;4914985;29;21569;-66
2021/05/21 02:39:49;;;;;;;5.43;2.83;;;8.70;99.90;;;;;;4916227;28;20083;-66
2021/05/21 02:42:16;;;;;;;10.93;2.70;;;8.70;99.90;;;;;;4917810;28;20115;-66
2021/05/21 02:44:43;;;;;;;4.70;3.50;;;8.70;99.90;;;;;;4918035;29;20051;-65
2021/05/21 02:47:10;;;;;;;18.08;3.20;;;8.70;99.90;;;;;;4917002;29;20123;-64
2021/05/21 02:49:37;;;;;;;5.50;3.17;;;8.70;99.90;;;;;;4916491;28;20056;-66
2021/05/21 02:52:04;;;;;;;5.97;3.13;;;8.70;99.90;;;;;;4916541;29;20142;-67
2021/05/21 02:54:31;;;;;;;5.10;2.58;;;8.70;99.90;;;;;;4918538;29;20063;-66
2021/05/21 02:56:57;;;;;;;5.68;2.72;;;8.70;99.90;;;;;;4917362;29;20609;-66
2021/05/21 02:59:24;;;;;;;6.95;3.28;;;8.70;99.90;;;;;;4913819;29;20082;-65
2021/05/21 03:01:51;;;;;;;7.10;2.70;;;8.70;99.90;;;;;;4917281;29;20697;-65
2021/05/21 03:04:18;;;;;;;5.75;2.83;;;8.70;99.90;;;;;;4918712;29;20054;-64
2021/05/21 03:06:45;;;;;;;9.27;3.33;;;8.70;99.90;;;;;;4917254;29;20083;-65
2021/05/21 03:09:12;;;;;;;7.57;3.92;;;8.70;99.90;;;;;;4917141;29;20063;-65
2021/05/21 03:11:39;;;;;;;5.07;2.83;;;8.70;99.90;;;;;;4917771;28;20099;-65
2021/05/21 03:14:06;;;;;;;4.15;2.50;;;8.70;99.90;;;;;;4918052;29;20474;-64
2021/05/21 03:16:33;;;;;;;6.93;3.22;;;8.70;99.90;;;;;;4916842;29;20048;-65
2021/05/21 03:19:01;;;;;;;8.15;2.80;;;8.70;99.90;;;;;;4918612;29;20132;-65
2021/05/21 03:21:28;;;;;;;4.28;2.20;;;8.60;99.90;;;;;;4914952;29;20051;-66
2021/05/21 03:23:55;;;;;;;5.90;2.38;;;8.60;99.90;;;;;;4917706;29;20057;-65
2021/05/21 03:26:22;;;;;;;6.03;3.60;;;8.60;99.90;;;;;;4916803;29;20091;-64
2021/05/21 03:28:48;;;;;;;7.25;3.40;;;8.60;99.90;;;;;;4917589;29;20055;-65
2021/05/21 03:31:15;;;;;;;6.95;4.22;;;8.60;99.90;;;;;;4916036;28;20063;-65
2021/05/21 03:33:42;;;;;;;5.72;3.15;;;8.60;99.90;;;;;;4916852;29;20123;-66
2021/05/21 03:36:10;;;;;;;4.65;2.47;;;8.60;99.90;;;;;;4917528;29;20052;-65
2021/05/21 03:38:38;;;;;;;7.47;3.17;;;8.60;99.90;;;;;;4915437;29;20134;-66
2021/05/21 03:41:06;;;;;;;3.25;2.75;;;8.60;99.90;;;;;;4918880;29;20055;-65
2021/05/21 03:43:33;;;;;;;4.32;2.20;;;8.60;99.90;;;;;;4913616;29;20103;-65
2021/05/21 03:46:00;;;;;;;4.55;2.10;;;8.70;99.90;;;;;;4917448;28;20531;-67
2021/05/21 03:48:28;;;;;;;5.32;2.50;;;8.60;99.90;;;;;;4916424;29;20488;-67
2021/05/21 03:50:54;;;;;;;8.93;3.58;;;8.70;99.90;;;;;;4915736;29;20404;-64
2021/05/21 03:53:21;;;;;;;7.90;4.05;;;8.60;99.90;;;;;;4913478;28;21039;-65
2021/05/21 03:55:48;;;;;;;5.13;3.10;;;8.60;99.90;;;;;;4916660;29;20063;-66
2021/05/21 03:58:15;;;;;;;7.43;2.38;;;8.70;99.90;;;;;;4915715;29;20055;-66
2021/05/21 04:00:42;;;;;;;4.78;2.38;;;8.70;99.90;;;;;;4916108;29;20047;-65
2021/05/21 04:03:09;;;;;;;5.18;3.03;;;8.60;99.90;;;;;;4915191;29;20166;-65
2021/05/21 04:05:36;;;;;;;5.40;3.25;;;8.60;99.90;;;;;;4914534;28;20071;-65
2021/05/21 04:08:04;;;;;;;4.03;2.75;;;8.70;99.90;;;;;;4915228;29;20460;-66
2021/05/21 04:10:32;;;;;;;8.45;2.75;;;8.70;99.90;;;;;;4931308;28;20111;-65
2021/05/21 04:12:59;;;;;;;3.92;2.28;;;8.70;99.90;;;;;;4929049;28;20047;-66
2021/05/21 04:15:26;;;;;;;8.27;2.38;;;8.70;99.90;;;;;;4929302;28;20056;-67
2021/05/21 04:17:53;;;;;;;4.05;2.47;;;8.70;99.90;;;;;;4929837;28;20410;-66
2021/05/21 04:20:20;;;;;;;3.40;1.77;;;8.70;99.90;;;;;;4930250;28;20221;-67
2021/05/21 04:22:49;;;;;;;7.93;2.38;;;8.70;99.90;;;;;;4930115;28;21477;-66
2021/05/21 04:25:16;;;;;;;8.02;2.58;;;8.70;99.90;;;;;;4928426;28;20063;-65
2021/05/21 04:27:43;;;;;;;7.55;2.65;;;8.70;99.90;;;;;;4930310;28;20481;-67
2021/05/21 04:30:10;;;;;;;5.30;2.10;;;8.70;99.90;;;;;;4930370;28;20119;-67
2021/05/21 04:32:37;;;;;;;6.30;2.67;;;8.70;99.90;;;;;;4929578;28;20059;-67
2021/05/21 04:35:07;;;;;;;4.93;2.92;;;8.70;99.90;;;;;;4930711;28;20469;-66
2021/05/21 04:37:34;;;;;;;3.17;2.20;;;8.70;99.90;;;;;;4928039;28;20060;-65
2021/05/21 04:40:01;;;;;;;6.82;1.92;;;8.70;99.90;;;;;;4930237;28;20406;-65
2021/05/21 04:42:42;;;;;;;;;;;8.70;99.90;;;;;;4930465;28;20487;-67
2021/05/21 04:45:09;;;;;;;6.47;2.10;;;8.70;99.90;;;;;;4930210;28;20381;-67
2021/05/21 04:47:37;;;;;;;7.72;2.95;;;8.80;99.90;;;;;;4926920;28;20047;-66
2021/05/21 04:50:05;;;;;;;6.63;1.95;;;8.70;99.90;;;;;;4930079;28;20180;-66
2021/05/21 04:52:32;;;;;;;8.40;3.30;;;8.80;99.90;;;;;;4929842;28;20524;-66
2021/05/21 04:54:59;;;;;;;4.30;2.28;;;8.80;99.90;;;;;;4929517;28;20153;-67
2021/05/21 04:57:27;;;;;;;7.45;3.28;;;8.90;99.90;;;;;;4927468;28;20040;-65
2021/05/21 04:59:54;;;;;;;7.32;2.17;;;8.90;99.90;;;;;;4926834;28;20058;-65
2021/05/21 05:02:21;;;;;;;9.13;2.42;;;9.00;99.90;;;;;;4926442;28;20059;-64
2021/05/21 05:04:48;;;;;;;3.28;2.28;;;8.90;99.90;;;;;;4930649;28;20166;-66
2021/05/21 05:07:15;;;;;;;5.95;2.35;;;8.90;99.90;;;;;;4928311;28;20056;-65
2021/05/21 05:09:43;;;;;;;5.28;2.30;;;8.90;99.90;;;;;;4929398;28;20119;-64
2021/05/21 05:12:10;;;;;;;5.20;2.95;;;8.90;99.90;;;;;;4929087;28;20051;-65
2021/05/21 05:14:37;;;;;;;12.40;2.30;;;9.00;99.90;;;;;;4934244;28;20055;-64
2021/05/21 05:17:03;;;;;;;8.57;2.00;;;9.00;99.90;;;;;;4932697;28;20482;-66
2021/05/21 05:19:30;;;;;;;4.78;1.80;;;9.00;99.90;;;;;;4931369;28;20062;-66
2021/05/21 05:21:58;;;;;;;4.00;1.77;;;9.10;99.90;;;;;;4933518;28;20055;-66
2021/05/21 05:24:26;;;;;;;4.18;1.80;;;9.10;99.90;;;;;;4933452;28;20062;-64
2021/05/21 05:26:58;;;;;;;6.38;2.03;;;9.10;99.90;;;;;;4933322;28;20061;-66
2021/05/21 05:29:25;;;;;;;7.07;1.90;;;9.20;99.90;;;;;;4933004;28;20154;-65
2021/05/21 05:31:53;;;;;;;8.80;2.90;;;9.10;99.90;;;;;;4938167;28;20111;-66
2021/05/21 05:34:20;;;;;;;7.60;1.77;;;9.20;99.90;;;;;;4934435;28;20754;-66
2021/05/21 05:36:47;;;;;;;5.75;1.90;;;9.10;99.90;;;;;;4933486;28;20688;-66
2021/05/21 05:39:14;;;;;;;8.68;1.77;;;9.10;99.90;;;;;;4931058;28;20125;-66
2021/05/21 05:41:41;;;;;;;8.60;2.00;;;9.10;99.90;;;;;;4933617;28;20083;-64
2021/05/21 05:44:08;;;;;;;4.72;1.70;;;9.10;99.90;;;;;;4929175;28;20087;-66
2021/05/21 05:46:35;;;;;;;8.20;2.75;;;9.20;99.90;;;;;;4930479;28;20086;-66
2021/05/21 05:49:02;;;;;;;6.82;2.25;;;9.20;99.90;;;;;;4932212;28;20110;-67
2021/05/21 05:51:29;;;;;;;6.82;2.28;;;9.30;99.90;;;;;;4928634;28;20110;-66
2021/05/21 05:53:56;;;;;;;3.80;1.60;;;9.20;99.90;;;;;;4931019;28;20071;-65
2021/05/21 05:56:23;;;;;;;9.35;2.45;;;9.20;99.90;;;;;;4932489;28;20055;-65
2021/05/21 05:58:50;;;;;;;6.30;2.53;;;9.20;99.90;;;;;;4930919;28;20051;-67
2021/05/21 06:01:16;;;;;;;2.25;1.90;;;9.20;99.90;;;;;;4929661;28;20097;-66
2021/05/21 06:03:43;;;;;;;4.78;1.90;;;9.00;99.90;;;;;;4932578;28;20074;-65
2021/05/21 06:06:11;;;;;;;5.60;1.50;;;9.00;99.90;;;;;;4931118;28;20454;-67
2021/05/21 06:09:08;;;;;;;3.65;1.70;;;8.90;99.90;;;;;;2360471;28;10024548;-65
2021/05/21 06:11:38;;;;;;;6.87;2.07;;;8.80;99.90;;;;;;3569669;28;10001925;-66
2021/05/21 06:14:05;;;;;;;4.85;1.85;;;8.80;99.90;;;;;;4929981;28;20540;-67
2021/05/21 06:16:32;;;;;;;5.80;2.13;;;8.80;99.90;;;;;;4931027;28;20422;-66
2021/05/21 06:18:59;;;;;;;5.72;2.45;;;8.90;99.90;;;;;;4932101;28;20059;-67
2021/05/21 06:21:26;;;;;;;4.28;1.77;;;8.90;99.90;;;;;;4928453;28;20052;-67
2021/05/21 06:23:53;;;;;;;2.80;1.58;;;8.90;99.90;;;;;;4932334;28;20415;-65
2021/05/21 06:27:24;;;;;;;4.90;1.77;;;9.00;99.90;;;;;;4929887;28;21378;-66
2021/05/21 06:29:30;;;;;;;4.75;1.75;;;9.00;99.90;;;;;;4928761;28;20051;-65
2021/05/21 06:31:57;;;;;;;3.55;1.95;;;9.10;99.90;;;;;;4930665;28;20118;-68
2021/05/21 06:34:24;;;;;;;10.00;2.45;;;9.20;99.90;;;;;;4932325;28;20059;-65
2021/05/21 06:36:52;;;;;;;5.65;1.40;;;9.20;99.90;;;;;;4931376;28;20063;-66
2021/05/21 06:39:19;;;;;;;4.18;1.60;;;9.20;99.90;;;;;;4930087;28;20110;-66
2021/05/21 06:41:46;;;;;;;8.43;1.30;;;9.10;99.90;;;;;;4930926;28;20489;-64
2021/05/21 06:44:13;;;;;;;6.80;1.90;;;9.10;99.90;;;;;;4932248;28;20426;-65
2021/05/21 06:46:40;;;;;;;2.78;1.67;;;9.20;99.90;;;;;;4930579;28;20107;-64
2021/05/21 06:49:11;;;;;;;6.50;1.80;;;9.20;99.90;;;;;;4934618;28;20054;-64
2021/05/21 06:51:38;;;;;;;5.03;1.70;;;9.20;99.90;;;;;;4927542;28;20047;-64
2021/05/21 06:54:06;;;;;;;1.70;1.40;;;9.20;99.90;;;;;;4933951;28;20074;-66
2021/05/21 06:56:35;;;;;;;2.47;1.42;;;9.20;99.90;;;;;;4931277;28;20059;-67
2021/05/21 06:59:04;;;;;;;5.38;1.42;;;9.20;99.90;;;;;;4931757;28;20088;-67
2021/05/21 07:01:31;;;;;;;2.85;1.20;;;9.10;99.90;;;;;;4928316;28;20703;-66
2021/05/21 07:03:58;;;;;;;5.28;1.73;;;9.20;99.90;;;;;;4930350;28;20154;-66
2021/05/21 07:06:26;;;;;;;3.63;2.15;;;9.20;99.90;;;;;;4929515;28;20490;-65
2021/05/21 07:08:53;;;;;;;1.65;1.40;;;9.20;99.90;;;;;;4930741;28;20153;-67
2021/05/21 07:11:19;;;;;;;7.88;2.30;;;9.20;99.90;;;;;;4928317;28;20089;-65
2021/05/21 07:13:47;;;;;;;5.35;1.20;;;9.20;99.90;;;;;;4930911;28;20106;-65
2021/05/21 07:16:14;;;;;;;5.18;1.63;;;9.20;99.90;;;;;;4929391;28;20071;-67
2021/05/21 07:18:41;;;;;;;2.78;2.08;;;9.20;99.90;;;;;;4930671;28;20122;-66
2021/05/21 07:21:07;;;;;;;7.68;1.98;;;9.30;99.90;;;;;;4930638;28;21023;-67
2021/05/21 07:23:35;;;;;;;6.55;1.75;;;9.30;99.90;;;;;;4928433;28;20055;-65
2021/05/21 07:26:02;;;;;;;12.73;1.20;;;9.30;99.90;;;;;;4930715;28;20047;-67
2021/05/21 07:28:29;;;;;;;6.60;2.05;;;9.50;99.90;;;;;;4929244;28;20051;-66
2021/05/21 07:30:56;;;;;;;7.40;1.90;;;9.50;99.90;;;;;;4930345;28;20081;-65
2021/05/21 07:33:23;;;;;;;4.45;1.45;;;9.60;99.90;;;;;;4928522;28;20129;-65
2021/05/21 07:35:51;;;;;;;3.75;2.25;;;9.70;99.90;;;;;;4930857;28;20437;-66
2021/05/21 07:38:18;;;;;;;3.10;1.65;;;9.70;99.90;;;;;;4929760;28;20052;-66
2021/05/21 07:40:44;;;;;;;7.40;1.45;;;9.80;99.90;;;;;;4930502;28;20106;-65
2021/05/21 07:43:11;;;;;;;4.95;2.17;;;9.70;99.90;;;;;;4930760;28;20059;-65
2021/05/21 07:45:38;;;;;;;6.88;2.95;;;9.80;99.90;;;;;;4928650;28;20048;-67
2021/05/21 07:48:06;;;;;;;4.82;1.40;;;9.80;99.90;;;;;;4929735;28;20052;-66
2021/05/21 07:50:38;;;;;;;7.57;2.60;;;9.80;99.90;;;;;;4930285;28;20067;-65
2021/05/21 07:53:06;;;;;;;3.08;1.67;;;9.80;99.90;;;;;;4930399;28;20254;-66
2021/05/21 07:55:34;;;;;;;1.65;1.40;;;9.90;99.90;;;;;;4929154;28;20054;-65
2021/05/21 07:58:02;;;;;;;3.03;2.75;;;10.00;99.90;;;;;;4929374;28;20082;-66
2021/05/21 08:00:29;;;;;;;3.13;1.20;;;10.00;99.90;;;;;;4929191;28;20544;-66
2021/05/21 08:02:56;;;;;;;4.53;1.65;;;10.00;99.90;;;;;;4930559;28;20067;-65
2021/05/21 08:05:23;;;;;;;5.50;1.77;;;10.00;99.90;;;;;;4910456;28;20054;-65
2021/05/21 08:07:50;;;;;;;4.20;1.83;;;10.10;99.90;;;;;;4930450;28;20482;-67
2021/05/21 08:10:17;;;;;;;6.57;1.30;;;10.20;99.90;;;;;;4928948;28;20098;-66
2021/05/21 08:12:44;;;;;;;2.90;1.58;;;10.30;99.90;;;;;;4929596;28;20052;-67
2021/05/21 08:15:12;;;;;;;3.42;1.40;;;10.40;99.90;;;;;;4930085;28;20581;-65
2021/05/21 08:17:39;;;;;;;1.77;1.50;;;10.30;99.90;;;;;;4927388;28;20051;-65
2021/05/21 08:20:09;;;;;;;;;;;10.30;99.90;;;;;;4929948;28;20052;-65
2021/05/21 08:22:36;;;;;;;6.95;1.88;;;10.20;99.90;;;;;;4928027;28;20399;-66
2021/05/21 08:25:05;;;;;;;4.43;1.42;;;10.10;99.90;;;;;;4929449;28;20200;-65
2021/05/21 08:27:32;;;;;;;4.90;1.38;;;10.40;99.90;;;;;;4928341;28;20043;-65
2021/05/21 08:29:59;;;;;;;1.83;1.73;;;10.40;99.90;;;;;;4929499;28;20063;-67
2021/05/21 08:32:27;;;;;;;7.15;1.50;;;10.50;99.90;;;;;;4929138;28;20812;-65
2021/05/21 08:34:53;;;;;;;3.30;1.85;;;10.60;99.90;;;;;;4929339;28;20043;-67
2021/05/21 08:37:20;;;;;;;5.28;1.23;;;10.60;99.90;;;;;;4927216;28;20406;-66
2021/05/21 08:39:48;;;;;;;4.35;1.55;;;10.70;99.90;;;;;;4928509;28;20055;-66
2021/05/21 08:42:20;;;;;;;1.77;1.23;;;10.80;99.90;;;;;;4929645;28;20051;-65
2021/05/21 08:44:49;;;;;;;5.22;1.25;;;10.90;99.90;;;;;;4929563;28;20051;-65
2021/05/21 08:47:17;;;;;;;10.43;1.50;;;10.90;99.90;;;;;;4927331;28;20102;-65
2021/05/21 08:49:47;;;;;;;3.70;1.77;;;11.10;99.90;;;;;;4932141;28;20087;-66
2021/05/21 08:52:16;;;;;;;3.83;1.90;;;11.10;99.90;;;;;;4933937;28;20051;-66
2021/05/21 08:54:45;;;;;;;2.65;0.98;;;11.20;99.90;;;;;;4931720;28;20052;-66
2021/05/21 08:57:18;;;;;;;5.32;2.53;;;11.30;99.90;;;;;;4933097;28;20362;-67
2021/05/21 08:59:45;;;;;;;1.63;1.50;;;11.30;99.90;;;;;;4933725;28;20055;-67
2021/05/21 09:02:26;;;;;;;2.00;1.20;;;11.30;99.90;;;;;;4916627;29;20728;-65
2021/05/21 09:04:58;;;;;;;3.13;1.15;;;11.40;99.90;;;;;;4932041;28;20059;-66
2021/05/21 09:07:29;;;;;;;3.22;2.03;;;11.50;99.90;;;;;;4931110;28;20071;-66
2021/05/21 09:09:58;;;;;;;2.55;1.55;;;11.50;99.90;;;;;;4930911;28;20091;-67
2021/05/21 09:12:40;;;;;;;4.68;1.40;;;11.40;99.90;;;;;;4935604;28;20066;-67
2021/05/21 09:15:19;;;;;;;3.42;1.10;;;11.60;99.90;;;;;;4934534;28;20055;-65
2021/05/21 09:18:00;;;;;;;1.58;1.20;;;11.70;99.90;;;;;;4935375;28;20078;-66
2021/05/21 09:20:35;;;;;;;2.47;1.65;;;11.50;99.90;;;;;;4932186;28;20110;-66
2021/05/21 09:23:16;;;;;;;2.05;1.20;;;11.60;99.90;;;;;;4933153;28;20117;-66
2021/05/21 09:25:51;;;;;;;2.63;1.30;;;11.80;99.90;;;;;;4929128;28;20055;-66
2021/05/21 09:28:35;;;;;;;8.90;1.65;;;11.90;99.90;;;;;;4933034;28;20051;-66
2021/05/21 09:31:10;;;;;;;3.33;1.23;;;12.00;99.90;;;;;;4932673;28;20135;-67
2021/05/21 09:33:40;;;;;;;6.78;1.30;;;12.10;99.90;;;;;;4929997;28;20073;-67
2021/05/21 09:36:09;;;;;;;7.82;1.67;;;12.20;99.90;;;;;;4932703;28;20047;-66
2021/05/21 09:38:47;;;;;;;3.28;0.93;;;12.40;99.90;;;;;;4933436;28;20083;-65
2021/05/21 09:41:14;;;;;;;1.50;1.38;;;12.50;99.90;;;;;;4930722;28;20501;-65
2021/05/21 09:43:41;;;;;;;3.00;1.10;;;12.60;99.90;;;;;;4933778;28;20047;-66
2021/05/21 09:46:12;;;;;;;2.55;0.73;;;12.60;99.90;;;;;;4931045;28;20383;-65
2021/05/21 09:48:39;;;;;;;5.65;0.80;;;12.80;99.90;;;;;;4931932;28;20537;-65
2021/05/21 09:51:12;;;;;;;4.78;1.17;;;12.80;99.90;;;;;;4931921;28;20075;-66
2021/05/21 09:53:39;;;;;;;4.13;1.20;;;12.50;99.90;;;;;;4930578;28;20070;-67
2021/05/21 09:56:16;;;;;;;3.38;1.00;;;12.40;99.90;;;;;;4930872;28;20572;-66
2021/05/21 09:58:47;;;;;;;1.17;1.08;;;12.50;99.90;;;;;;4932547;28;20081;-65
2021/05/21 10:01:20;;;;;;;2.42;0.70;;;12.70;99.90;;;;;;4928909;28;20068;-65
2021/05/21 10:03:55;;;;;;;1.05;0.85;;;12.90;99.90;;;;;;4932699;28;20086;-66
2021/05/21 10:06:24;;;;;;;1.25;0.88;;;13.10;99.90;;;;;;4930004;28;20065;-65
2021/05/21 10:08:55;;;;;;;2.85;1.00;;;13.00;99.90;;;;;;4930462;28;20059;-65
2021/05/21 10:11:23;;;;;;;2.60;1.05;;;13.10;99.90;;;;;;4928981;28;20047;-67
2021/05/21 10:13:51;;;;;;;5.75;0.93;;;13.10;99.90;;;;;;4931513;28;20415;-65
2021/05/21 10:16:19;;;;;;;4.45;1.00;;;13.10;99.90;;;;;;4933283;28;20174;-66
2021/05/21 10:18:51;;;;;;;1.85;1.58;;;13.20;99.90;;;;;;4932450;28;20047;-66
2021/05/21 10:21:20;;;;;;;3.58;1.40;;;13.30;99.90;;;;;;4928851;28;20047;-66
2021/05/21 10:24:00;;;;;;;3.10;1.17;;;13.40;99.90;;;;;;4931293;28;20047;-66
2021/05/21 10:26:34;;;;;;;;;;;13.50;99.90;;;;;;4932125;28;20490;-65
2021/05/21 10:29:11;;;;;;;2.47;0.75;;;13.40;99.90;;;;;;4929586;28;21098;-65
2021/05/21 10:31:38;;;;;;;1.38;1.00;;;13.30;99.90;;;;;;4928906;28;20052;-65
2021/05/21 10:34:17;;;;;;;5.28;1.42;;;13.30;99.90;;;;;;4930874;28;20047;-65
2021/05/21 10:37:31;;;;;;;3.47;1.27;;;13.10;99.90;;;;;;4929130;28;20114;-67
2021/05/21 10:40:27;;;;;;;5.65;1.58;;;13.00;99.90;;;;;;4929412;28;20081;-67
2021/05/21 10:43:16;;;;;;;2.83;1.08;;;13.10;99.90;;;;;;4931941;28;20165;-66
2021/05/21 10:45:56;;;;;;;0.70;0.70;;;13.20;99.90;;;;;;4932970;28;20617;-65
2021/05/21 10:48:27;;;;;;;3.28;1.17;;;13.40;99.90;;;;;;4914215;29;20621;-66
2021/05/21 10:51:13;;;;;;;2.63;1.15;;;13.20;99.90;;;;;;4931062;28;20060;-66
2021/05/21 10:53:47;;;;;;;5.00;1.15;;;13.30;99.90;;;;;;4928872;28;20109;-65
2021/05/21 10:56:17;;;;;;;4.05;1.00;;;13.40;99.90;;;;;;4928278;28;20055;-66
2021/05/21 10:58:44;;;;;;;1.42;0.80;;;13.40;99.90;;;;;;4930406;28;20059;-65
2021/05/21 11:01:18;;;;;;;3.65;1.40;;;13.40;99.90;;;;;;4931521;28;20162;-66
2021/05/21 11:04:05;;;;;;;2.67;1.10;;;13.40;99.90;;;;;;4928890;28;20051;-65
2021/05/21 11:06:54;;;;;;;1.55;0.73;;;13.70;99.90;;;;;;4929340;28;20578;-66
2021/05/21 11:09:26;;;;;;;2.55;1.08;;;13.80;99.90;;;;;;4927225;28;20703;-65
2021/05/21 11:12:00;;;;;;;3.05;0.80;;;13.80;99.90;;;;;;4931073;28;20059;-66
2021/05/21 11:14:49;;;;;;;2.15;0.90;;;13.90;99.90;;;;;;4931855;28;20051;-66
2021/05/21 11:17:25;;;;;;;3.30;0.90;;;13.90;99.90;;;;;;4928595;28;20051;-65
2021/05/21 11:19:57;;;;;;;3.28;1.42;;;14.00;99.90;;;;;;4929981;28;20043;-66
2021/05/21 11:22:38;;;;;;;2.30;1.33;;;14.00;99.90;;;;;;4931623;28;20122;-65
2021/05/21 11:25:14;;;;;;;4.00;1.52;;;14.10;99.90;;;;;;4929895;28;20075;-65
2021/05/21 11:27:42;;;;;;;2.10;1.88;;;14.10;99.90;;;;;;4929051;28;20063;-66
2021/05/21 11:30:11;;;;;;;4.55;1.67;;;14.30;99.90;;;;;;4929878;28;20082;-65
2021/05/21 11:32:41;;;;;;;5.07;1.67;;;14.50;99.90;;;;;;4929353;28;20055;-65
2021/05/21 11:35:11;;;;;;;1.90;1.10;;;14.70;99.90;;;;;;4931443;28;20126;-66
2021/05/21 11:37:59;;;;;;;4.10;1.55;;;14.90;99.90;;;;;;4916245;28;20054;-66
2021/05/21 11:40:27;;;;;;;3.58;1.55;;;15.00;99.90;;;;;;4930381;28;20051;-66
2021/05/21 11:42:54;;;;;;;3.90;1.15;;;14.70;99.90;;;;;;4930453;28;20426;-66
2021/05/21 11:45:26;;;;;;;2.90;0.90;;;14.80;99.90;;;;;;4927239;28;20058;-66
2021/05/21 11:47:54;;;;;;;1.67;0.77;;;14.80;99.90;;;;;;4927815;28;20054;-66
2021/05/21 11:50:29;;;;;;;3.17;1.48;;;15.00;99.90;;;;;;4929517;28;20795;-66
2021/05/21 11:53:09;;;;;;;5.70;1.38;;;15.10;99.90;;;;;;4929396;28;20496;-66
2021/05/21 11:55:42;;;;;;;5.05;1.15;;;15.30;99.90;;;;;;4927375;28;20115;-67
2021/05/21 11:58:20;;;;;;;2.08;1.02;;;15.30;99.90;;;;;;4929104;28;21068;-67
2021/05/21 12:00:51;;;;;;;2.90;2.67;;;15.20;99.90;;;;;;4929638;28;20114;-66
2021/05/21 12:03:18;;;;;;;4.00;1.40;;;15.20;99.90;;;;;;4907323;29;20059;-66
2021/05/21 12:05:45;;;;;;;1.77;1.13;;;15.30;99.90;;;;;;4927365;29;20055;-66
2021/05/21 12:08:11;;;;;;;2.80;1.50;;;15.40;99.90;;;;;;4924327;28;20148;-66
2021/05/21 12:10:41;;;;;;;5.93;1.30;;;15.50;99.90;;;;;;4931126;28;20138;-66
2021/05/21 12:13:09;;;;;;;3.00;2.15;;;15.60;99.90;;;;;;4928134;28;20055;-65
2021/05/21 12:15:37;;;;;;;1.35;1.05;;;15.60;99.90;;;;;;4928670;28;20150;-66
2021/05/21 12:18:05;;;;;;;1.63;1.30;;;15.60;99.90;;;;;;4928172;28;20095;-66
2021/05/21 12:20:31;;;;;;;2.42;1.17;;;15.80;99.90;;;;;;4930061;28;20071;-66
2021/05/21 12:23:08;;;;;;;6.68;1.67;;;16.00;99.90;;;;;;4926676;28;20566;-65
2021/05/21 12:25:37;;;;;;;1.45;0.90;;;16.10;99.90;;;;;;4930841;28;20075;-66
2021/05/21 12:28:05;;;;;;;3.42;1.33;;;16.30;99.90;;;;;;4928255;28;20055;-66
2021/05/21 12:30:32;;;;;;;3.17;1.25;;;16.30;99.90;;;;;;4929381;28;20146;-66
2021/05/21 12:33:00;;;;;;;3.50;1.52;;;16.20;99.90;;;;;;4928180;28;20125;-67
2021/05/21 12:35:39;;;;;;;3.13;0.70;;;16.30;99.90;;;;;;4928446;28;20066;-67
2021/05/21 12:38:08;;;;;;;3.40;0.85;;;16.50;99.90;;;;;;4927480;28;20055;-66
2021/05/21 12:40:52;;;;;;;;;;;16.60;99.90;;;;;;4929220;28;20881;-66
2021/05/21 12:43:19;;;;;;;3.42;1.02;;;16.60;99.90;;;;;;4925987;28;19930;-64
2021/05/21 12:46:02;;;;;;;2.85;0.60;;;16.60;99.40;;;;;;4927994;28;20672;-64
2021/05/21 12:48:39;;;;;;;1.05;0.93;;;16.50;99.50;;;;;;4928427;28;20081;-63
2021/05/21 12:51:26;;;;;;;1.60;1.02;;;16.50;99.80;;;;;;4927402;28;20051;-63
2021/05/21 12:54:14;;;;;;;4.20;0.98;;;16.60;99.30;;;;;;4926803;28;20048;-63
2021/05/21 12:56:41;;;;;;;2.13;1.25;;;16.50;98.60;;;;;;4928242;28;20154;-63
2021/05/21 12:59:12;;;;;;;2.03;1.50;;;16.40;98.80;;;;;;4926914;28;21074;-64
2021/05/21 13:01:41;;;;;;;1.60;0.88;;;16.60;99.70;;;;;;4927324;28;20122;-63
2021/05/21 13:04:16;;;;;;;13.18;1.75;;;16.50;99.40;;;;;;4927438;28;20533;-63